Terminal Aerodrome Forecast
Issued by NWS Shreveport, LA

Home | Current Version | Previous Version | Text Only | Print | Product List | Glossary On
Versions: 1 2 3 4 5 6 7 8 9 10 11 12 13 14 15 16 17 18 19 20 21
000
FTUS44 KSHV 230400 AAB
TAFSHV
TAF AMD
KSHV 230440Z 2305/2324 12009KT 4SM RA BR SCT007 BKN015 OVC025
      TEMPO 2305/2306 3SM -SHRA BR BKN007 OVC015
     FM230600 13007KT 5SM -SHRA BR BKN008 OVC015
     FM231100 13008KT 3SM BR VCSH OVC007
     FM231300 16011KT 5SM BR OVC004
     FM231600 23010G18KT P6SM BKN008 OVC015
     FM231800 22015G22KT P6SM BKN020
     FM232100 19012KT P6SM OVC035=

USA.gov is the U.S. government's official web portal to all federal, state and local government web resources and services.